sensor_id;sensor_type;location;lat;lon;timestamp;P1;durP1;ratioP1;P2;durP2;ratioP2
6519;SDS011;3293;51.690;5.982;2023-11-19T00:02:05;21.67;;;14.43;;
6519;SDS011;3293;51.690;5.982;2023-11-19T00:07:06;22.63;;;15.03;;
6519;SDS011;3293;51.690;5.982;2023-11-19T00:12:07;20.40;;;14.30;;
6519;SDS011;3293;51.690;5.982;2023-11-19T00:17:07;21.30;;;14.27;;
6519;SDS011;3293;51.690;5.982;2023-11-19T00:22:07;19.73;;;14.67;;
6519;SDS011;3293;51.690;5.982;2023-11-19T00:27:06;23.40;;;15.43;;
6519;SDS011;3293;51.690;5.982;2023-11-19T00:32:07;20.77;;;14.37;;
6519;SDS011;3293;51.690;5.982;2023-11-19T00:37:07;24.83;;;14.50;;
6519;SDS011;3293;51.690;5.982;2023-11-19T00:42:06;26.53;;;15.30;;
6519;SDS011;3293;51.690;5.982;2023-11-19T00:47:07;22.97;;;15.00;;
6519;SDS011;3293;51.690;5.982;2023-11-19T00:52:07;26.43;;;15.60;;
6519;SDS011;3293;51.690;5.982;2023-11-19T00:57:07;24.83;;;14.67;;
6519;SDS011;3293;51.690;5.982;2023-11-19T01:02:07;24.77;;;14.50;;
6519;SDS011;3293;51.690;5.982;2023-11-19T01:07:06;24.00;;;14.03;;
6519;SDS011;3293;51.690;5.982;2023-11-19T01:12:11;24.67;;;13.30;;
6519;SDS011;3293;51.690;5.982;2023-11-19T01:17:11;28.67;;;14.53;;
6519;SDS011;3293;51.690;5.982;2023-11-19T01:22:11;23.53;;;13.57;;
6519;SDS011;3293;51.690;5.982;2023-11-19T01:27:11;27.50;;;12.67;;
6519;SDS011;3293;51.690;5.982;2023-11-19T01:32:11;25.80;;;12.60;;
6519;SDS011;3293;51.690;5.982;2023-11-19T01:37:11;19.33;;;12.17;;
6519;SDS011;3293;51.690;5.982;2023-11-19T01:42:13;26.43;;;11.57;;
6519;SDS011;3293;51.690;5.982;2023-11-19T01:47:13;18.67;;;10.03;;
6519;SDS011;3293;51.690;5.982;2023-11-19T01:52:13;29.97;;;10.77;;
6519;SDS011;3293;51.690;5.982;2023-11-19T01:57:13;22.93;;;9.57;;
6519;SDS011;3293;51.690;5.982;2023-11-19T02:02:14;23.27;;;9.43;;
6519;SDS011;3293;51.690;5.982;2023-11-19T02:07:14;22.03;;;8.37;;
6519;SDS011;3293;51.690;5.982;2023-11-19T02:12:16;24.90;;;8.57;;
6519;SDS011;3293;51.690;5.982;2023-11-19T02:17:29;18.80;;;8.13;;
6519;SDS011;3293;51.690;5.982;2023-11-19T02:22:33;20.83;;;8.63;;
6519;SDS011;3293;51.690;5.982;2023-11-19T02:27:53;23.00;;;8.43;;
6519;SDS011;3293;51.690;5.982;2023-11-19T02:32:55;19.17;;;7.23;;
6519;SDS011;3293;51.690;5.982;2023-11-19T02:37:57;20.03;;;7.37;;
6519;SDS011;3293;51.690;5.982;2023-11-19T02:42:59;28.60;;;7.53;;
6519;SDS011;3293;51.690;5.982;2023-11-19T02:47:58;23.97;;;6.87;;
6519;SDS011;3293;51.690;5.982;2023-11-19T02:53:00;26.43;;;7.87;;
6519;SDS011;3293;51.690;5.982;2023-11-19T02:58:00;23.33;;;7.23;;
6519;SDS011;3293;51.690;5.982;2023-11-19T03:03:04;26.43;;;7.17;;
6519;SDS011;3293;51.690;5.982;2023-11-19T03:08:19;27.73;;;9.17;;
6519;SDS011;3293;51.690;5.982;2023-11-19T03:13:19;22.63;;;8.83;;
6519;SDS011;3293;51.690;5.982;2023-11-19T03:18:19;25.77;;;8.13;;
6519;SDS011;3293;51.690;5.982;2023-11-19T03:23:19;23.83;;;7.70;;
6519;SDS011;3293;51.690;5.982;2023-11-19T03:28:19;29.00;;;7.53;;
6519;SDS011;3293;51.690;5.982;2023-11-19T03:33:19;28.63;;;9.03;;
6519;SDS011;3293;51.690;5.982;2023-11-19T03:38:19;35.43;;;7.83;;
6519;SDS011;3293;51.690;5.982;2023-11-19T03:43:20;33.57;;;6.73;;
6519;SDS011;3293;51.690;5.982;2023-11-19T03:48:20;33.83;;;7.20;;
6519;SDS011;3293;51.690;5.982;2023-11-19T03:53:20;26.07;;;6.87;;
6519;SDS011;3293;51.690;5.982;2023-11-19T03:58:20;25.67;;;7.37;;
6519;SDS011;3293;51.690;5.982;2023-11-19T04:03:20;24.73;;;6.33;;
6519;SDS011;3293;51.690;5.982;2023-11-19T04:08:19;31.57;;;7.27;;
6519;SDS011;3293;51.690;5.982;2023-11-19T04:13:19;25.77;;;7.13;;
6519;SDS011;3293;51.690;5.982;2023-11-19T04:18:20;18.90;;;6.50;;
6519;SDS011;3293;51.690;5.982;2023-11-19T04:23:19;26.30;;;7.20;;
6519;SDS011;3293;51.690;5.982;2023-11-19T04:28:20;26.27;;;7.23;;
6519;SDS011;3293;51.690;5.982;2023-11-19T04:33:20;27.97;;;6.30;;
6519;SDS011;3293;51.690;5.982;2023-11-19T04:38:20;28.87;;;7.77;;
6519;SDS011;3293;51.690;5.982;2023-11-19T04:43:20;33.63;;;7.13;;
6519;SDS011;3293;51.690;5.982;2023-11-19T04:48:20;23.47;;;7.13;;
6519;SDS011;3293;51.690;5.982;2023-11-19T04:53:20;39.50;;;7.63;;
6519;SDS011;3293;51.690;5.982;2023-11-19T04:58:19;26.10;;;6.63;;
6519;SDS011;3293;51.690;5.982;2023-11-19T05:03:19;40.90;;;8.17;;
6519;SDS011;3293;51.690;5.982;2023-11-19T05:08:19;32.50;;;7.23;;
6519;SDS011;3293;51.690;5.982;2023-11-19T05:13:19;38.20;;;8.67;;
6519;SDS011;3293;51.690;5.982;2023-11-19T05:18:19;48.03;;;8.47;;
6519;SDS011;3293;51.690;5.982;2023-11-19T05:23:19;37.00;;;8.33;;
6519;SDS011;3293;51.690;5.982;2023-11-19T05:28:19;36.73;;;8.50;;
6519;SDS011;3293;51.690;5.982;2023-11-19T05:33:19;36.20;;;7.90;;
6519;SDS011;3293;51.690;5.982;2023-11-19T05:38:19;36.80;;;8.63;;
6519;SDS011;3293;51.690;5.982;2023-11-19T05:43:20;35.87;;;7.87;;
6519;SDS011;3293;51.690;5.982;2023-11-19T05:48:20;42.77;;;8.63;;
6519;SDS011;3293;51.690;5.982;2023-11-19T05:53:20;31.50;;;8.80;;
6519;SDS011;3293;51.690;5.982;2023-11-19T05:58:22;36.90;;;8.80;;
6519;SDS011;3293;51.690;5.982;2023-11-19T06:03:30;38.03;;;8.60;;
6519;SDS011;3293;51.690;5.982;2023-11-19T06:08:30;35.63;;;10.53;;
6519;SDS011;3293;51.690;5.982;2023-11-19T06:13:30;46.03;;;10.20;;
6519;SDS011;3293;51.690;5.982;2023-11-19T06:18:30;35.77;;;8.17;;
6519;SDS011;3293;51.690;5.982;2023-11-19T06:23:31;44.97;;;8.57;;
6519;SDS011;3293;51.690;5.982;2023-11-19T06:28:31;35.40;;;7.57;;
6519;SDS011;3293;51.690;5.982;2023-11-19T06:33:31;32.07;;;7.53;;
6519;SDS011;3293;51.690;5.982;2023-11-19T06:38:31;38.90;;;7.50;;
6519;SDS011;3293;51.690;5.982;2023-11-19T06:43:31;35.83;;;7.37;;
6519;SDS011;3293;51.690;5.982;2023-11-19T06:48:33;35.00;;;6.97;;
6519;SDS011;3293;51.690;5.982;2023-11-19T06:53:32;42.83;;;7.57;;
6519;SDS011;3293;51.690;5.982;2023-11-19T06:58:35;37.00;;;7.67;;
6519;SDS011;3293;51.690;5.982;2023-11-19T07:03:36;30.00;;;6.43;;
6519;SDS011;3293;51.690;5.982;2023-11-19T07:08:35;32.30;;;8.03;;
6519;SDS011;3293;51.690;5.982;2023-11-19T07:13:35;33.77;;;7.70;;
6519;SDS011;3293;51.690;5.982;2023-11-19T07:18:35;30.17;;;7.70;;
6519;SDS011;3293;51.690;5.982;2023-11-19T07:23:35;40.97;;;8.13;;
6519;SDS011;3293;51.690;5.982;2023-11-19T07:28:35;38.17;;;8.70;;
6519;SDS011;3293;51.690;5.982;2023-11-19T07:33:35;33.47;;;6.73;;
6519;SDS011;3293;51.690;5.982;2023-11-19T07:38:36;32.20;;;6.83;;
6519;SDS011;3293;51.690;5.982;2023-11-19T07:43:36;29.27;;;6.70;;
6519;SDS011;3293;51.690;5.982;2023-11-19T07:48:36;31.90;;;6.50;;
6519;SDS011;3293;51.690;5.982;2023-11-19T07:53:36;37.13;;;7.73;;
6519;SDS011;3293;51.690;5.982;2023-11-19T07:58:37;44.23;;;8.43;;
6519;SDS011;3293;51.690;5.982;2023-11-19T08:03:37;33.60;;;8.60;;
6519;SDS011;3293;51.690;5.982;2023-11-19T08:08:37;35.20;;;7.17;;
6519;SDS011;3293;51.690;5.982;2023-11-19T08:13:37;31.87;;;7.70;;
6519;SDS011;3293;51.690;5.982;2023-11-19T08:18:37;34.27;;;6.40;;
6519;SDS011;3293;51.690;5.982;2023-11-19T08:23:38;33.07;;;7.93;;
6519;SDS011;3293;51.690;5.982;2023-11-19T08:28:38;36.27;;;8.07;;
6519;SDS011;3293;51.690;5.982;2023-11-19T08:33:38;29.13;;;6.43;;
6519;SDS011;3293;51.690;5.982;2023-11-19T08:38:38;40.90;;;8.13;;
6519;SDS011;3293;51.690;5.982;2023-11-19T08:43:37;33.90;;;7.87;;
6519;SDS011;3293;51.690;5.982;2023-11-19T08:48:38;36.77;;;6.63;;
6519;SDS011;3293;51.690;5.982;2023-11-19T08:53:38;39.50;;;7.03;;
6519;SDS011;3293;51.690;5.982;2023-11-19T08:58:38;34.23;;;7.43;;
6519;SDS011;3293;51.690;5.982;2023-11-19T09:03:38;26.67;;;6.40;;
6519;SDS011;3293;51.690;5.982;2023-11-19T09:08:37;30.27;;;7.03;;
6519;SDS011;3293;51.690;5.982;2023-11-19T09:13:37;23.33;;;5.97;;
6519;SDS011;3293;51.690;5.982;2023-11-19T09:18:37;46.20;;;8.00;;
6519;SDS011;3293;51.690;5.982;2023-11-19T09:23:37;29.87;;;6.43;;
6519;SDS011;3293;51.690;5.982;2023-11-19T09:28:38;31.80;;;7.77;;
6519;SDS011;3293;51.690;5.982;2023-11-19T09:33:38;38.27;;;8.37;;
6519;SDS011;3293;51.690;5.982;2023-11-19T09:38:38;29.63;;;6.67;;
6519;SDS011;3293;51.690;5.982;2023-11-19T09:43:39;25.23;;;7.13;;
6519;SDS011;3293;51.690;5.982;2023-11-19T09:48:39;36.00;;;6.57;;
6519;SDS011;3293;51.690;5.982;2023-11-19T09:53:39;25.05;;;7.30;;
6519;SDS011;3293;51.690;5.982;2023-11-19T09:58:39;38.33;;;7.03;;
6519;SDS011;3293;51.690;5.982;2023-11-19T10:03:41;29.50;;;7.57;;
6519;SDS011;3293;51.690;5.982;2023-11-19T10:08:43;31.40;;;6.20;;
6519;SDS011;3293;51.690;5.982;2023-11-19T10:13:43;43.00;;;8.43;;
6519;SDS011;3293;51.690;5.982;2023-11-19T10:18:47;30.03;;;7.73;;
6519;SDS011;3293;51.690;5.982;2023-11-19T10:23:50;30.57;;;6.53;;
6519;SDS011;3293;51.690;5.982;2023-11-19T10:28:53;37.40;;;8.70;;
6519;SDS011;3293;51.690;5.982;2023-11-19T10:33:55;21.03;;;6.23;;
6519;SDS011;3293;51.690;5.982;2023-11-19T10:38:56;36.77;;;7.30;;
6519;SDS011;3293;51.690;5.982;2023-11-19T10:43:56;30.05;;;7.70;;
6519;SDS011;3293;51.690;5.982;2023-11-19T10:48:57;30.33;;;7.27;;
6519;SDS011;3293;51.690;5.982;2023-11-19T10:53:58;28.00;;;7.00;;
6519;SDS011;3293;51.690;5.982;2023-11-19T10:59:05;28.97;;;6.23;;
6519;SDS011;3293;51.690;5.982;2023-11-19T11:04:06;26.53;;;5.63;;
6519;SDS011;3293;51.690;5.982;2023-11-19T11:09:18;26.77;;;6.20;;
6519;SDS011;3293;51.690;5.982;2023-11-19T11:14:19;30.43;;;6.87;;
6519;SDS011;3293;51.690;5.982;2023-11-19T11:19:20;30.10;;;7.30;;
6519;SDS011;3293;51.690;5.982;2023-11-19T11:29:46;31.63;;;6.67;;
6519;SDS011;3293;51.690;5.982;2023-11-19T11:40:15;29.80;;;6.90;;
6519;SDS011;3293;51.690;5.982;2023-11-19T11:45:15;25.53;;;5.67;;
6519;SDS011;3293;51.690;5.982;2023-11-19T11:50:16;24.80;;;6.27;;
6519;SDS011;3293;51.690;5.982;2023-11-19T11:55:23;30.13;;;6.67;;
6519;SDS011;3293;51.690;5.982;2023-11-19T12:00:37;21.03;;;5.67;;
6519;SDS011;3293;51.690;5.982;2023-11-19T12:05:41;18.33;;;5.67;;
6519;SDS011;3293;51.690;5.982;2023-11-19T12:10:51;26.40;;;5.00;;
6519;SDS011;3293;51.690;5.982;2023-11-19T12:20:59;16.47;;;4.83;;
6519;SDS011;3293;51.690;5.982;2023-11-19T12:26:02;19.37;;;5.10;;
6519;SDS011;3293;51.690;5.982;2023-11-19T12:31:09;22.40;;;5.63;;
6519;SDS011;3293;51.690;5.982;2023-11-19T12:36:09;23.10;;;5.23;;
6519;SDS011;3293;51.690;5.982;2023-11-19T12:41:09;18.57;;;4.70;;
6519;SDS011;3293;51.690;5.982;2023-11-19T12:46:16;19.03;;;5.20;;
6519;SDS011;3293;51.690;5.982;2023-11-19T12:51:18;17.70;;;4.87;;
6519;SDS011;3293;51.690;5.982;2023-11-19T12:56:19;23.70;;;5.97;;
6519;SDS011;3293;51.690;5.982;2023-11-19T13:01:20;23.87;;;5.60;;
6519;SDS011;3293;51.690;5.982;2023-11-19T13:06:20;27.13;;;6.17;;
6519;SDS011;3293;51.690;5.982;2023-11-19T13:11:34;27.80;;;6.20;;
6519;SDS011;3293;51.690;5.982;2023-11-19T13:16:40;23.83;;;5.20;;
6519;SDS011;3293;51.690;5.982;2023-11-19T13:21:40;15.30;;;4.70;;
6519;SDS011;3293;51.690;5.982;2023-11-19T13:26:40;25.07;;;4.97;;
6519;SDS011;3293;51.690;5.982;2023-11-19T13:31:41;22.60;;;5.10;;
6519;SDS011;3293;51.690;5.982;2023-11-19T13:36:42;27.53;;;6.10;;
6519;SDS011;3293;51.690;5.982;2023-11-19T13:41:42;17.67;;;4.77;;
6519;SDS011;3293;51.690;5.982;2023-11-19T13:46:44;25.67;;;5.40;;
6519;SDS011;3293;51.690;5.982;2023-11-19T13:51:44;21.03;;;5.53;;
6519;SDS011;3293;51.690;5.982;2023-11-19T13:56:44;22.67;;;5.67;;
6519;SDS011;3293;51.690;5.982;2023-11-19T14:01:46;23.43;;;6.50;;
6519;SDS011;3293;51.690;5.982;2023-11-19T14:06:45;25.67;;;5.93;;
6519;SDS011;3293;51.690;5.982;2023-11-19T14:11:45;15.97;;;5.20;;
6519;SDS011;3293;51.690;5.982;2023-11-19T14:16:45;17.97;;;5.00;;
6519;SDS011;3293;51.690;5.982;2023-11-19T14:21:45;18.30;;;5.93;;
6519;SDS011;3293;51.690;5.982;2023-11-19T14:26:46;20.67;;;5.53;;
6519;SDS011;3293;51.690;5.982;2023-11-19T14:31:49;17.07;;;4.20;;
6519;SDS011;3293;51.690;5.982;2023-11-19T14:36:49;19.97;;;4.50;;
6519;SDS011;3293;51.690;5.982;2023-11-19T14:41:50;26.07;;;5.20;;
6519;SDS011;3293;51.690;5.982;2023-11-19T14:46:52;20.13;;;5.30;;
6519;SDS011;3293;51.690;5.982;2023-11-19T14:51:52;26.03;;;7.43;;
6519;SDS011;3293;51.690;5.982;2023-11-19T14:56:52;21.63;;;6.33;;
6519;SDS011;3293;51.690;5.982;2023-11-19T15:01:52;17.87;;;4.73;;
6519;SDS011;3293;51.690;5.982;2023-11-19T15:06:52;18.03;;;5.07;;
6519;SDS011;3293;51.690;5.982;2023-11-19T15:11:55;14.80;;;4.93;;
6519;SDS011;3293;51.690;5.982;2023-11-19T15:16:57;14.13;;;4.60;;
6519;SDS011;3293;51.690;5.982;2023-11-19T15:21:57;18.97;;;4.97;;
6519;SDS011;3293;51.690;5.982;2023-11-19T15:26:57;17.97;;;5.30;;
6519;SDS011;3293;51.690;5.982;2023-11-19T15:31:57;23.63;;;5.40;;
6519;SDS011;3293;51.690;5.982;2023-11-19T15:36:57;16.00;;;4.40;;
6519;SDS011;3293;51.690;5.982;2023-11-19T15:41:57;17.57;;;4.50;;
6519;SDS011;3293;51.690;5.982;2023-11-19T15:46:58;25.83;;;5.57;;
6519;SDS011;3293;51.690;5.982;2023-11-19T15:51:58;15.97;;;4.97;;
6519;SDS011;3293;51.690;5.982;2023-11-19T15:56:59;22.40;;;6.37;;
6519;SDS011;3293;51.690;5.982;2023-11-19T16:01:59;18.93;;;4.77;;
6519;SDS011;3293;51.690;5.982;2023-11-19T16:06:59;24.00;;;5.67;;
6519;SDS011;3293;51.690;5.982;2023-11-19T16:11:59;20.53;;;5.00;;
6519;SDS011;3293;51.690;5.982;2023-11-19T16:16:58;18.57;;;4.97;;
6519;SDS011;3293;51.690;5.982;2023-11-19T16:21:58;18.63;;;4.90;;
6519;SDS011;3293;51.690;5.982;2023-11-19T16:27:08;17.13;;;5.80;;
6519;SDS011;3293;51.690;5.982;2023-11-19T16:32:09;17.50;;;5.23;;
6519;SDS011;3293;51.690;5.982;2023-11-19T16:37:09;17.63;;;4.83;;
6519;SDS011;3293;51.690;5.982;2023-11-19T16:42:09;17.57;;;5.27;;
6519;SDS011;3293;51.690;5.982;2023-11-19T16:47:09;13.27;;;4.67;;
6519;SDS011;3293;51.690;5.982;2023-11-19T16:52:09;27.17;;;6.03;;
6519;SDS011;3293;51.690;5.982;2023-11-19T16:57:09;24.00;;;5.93;;
6519;SDS011;3293;51.690;5.982;2023-11-19T17:02:09;14.53;;;5.10;;
6519;SDS011;3293;51.690;5.982;2023-11-19T17:07:10;15.00;;;4.90;;
6519;SDS011;3293;51.690;5.982;2023-11-19T17:12:10;20.97;;;5.23;;
6519;SDS011;3293;51.690;5.982;2023-11-19T17:17:10;23.13;;;5.40;;
6519;SDS011;3293;51.690;5.982;2023-11-19T17:22:10;26.47;;;5.87;;
6519;SDS011;3293;51.690;5.982;2023-11-19T17:27:10;21.93;;;5.97;;
6519;SDS011;3293;51.690;5.982;2023-11-19T17:32:10;16.40;;;5.37;;
6519;SDS011;3293;51.690;5.982;2023-11-19T17:37:10;23.10;;;5.57;;
6519;SDS011;3293;51.690;5.982;2023-11-19T17:42:10;18.13;;;5.80;;
6519;SDS011;3293;51.690;5.982;2023-11-19T17:47:10;16.63;;;4.07;;
6519;SDS011;3293;51.690;5.982;2023-11-19T17:52:10;13.13;;;5.17;;
6519;SDS011;3293;51.690;5.982;2023-11-19T17:57:10;19.77;;;4.97;;
6519;SDS011;3293;51.690;5.982;2023-11-19T18:02:12;22.87;;;5.50;;
6519;SDS011;3293;51.690;5.982;2023-11-19T18:07:13;27.57;;;6.50;;
6519;SDS011;3293;51.690;5.982;2023-11-19T18:12:13;18.93;;;5.40;;
6519;SDS011;3293;51.690;5.982;2023-11-19T18:17:13;21.40;;;6.07;;
6519;SDS011;3293;51.690;5.982;2023-11-19T18:22:14;25.30;;;6.37;;
6519;SDS011;3293;51.690;5.982;2023-11-19T18:27:14;21.93;;;5.03;;
6519;SDS011;3293;51.690;5.982;2023-11-19T18:32:14;27.10;;;5.80;;
6519;SDS011;3293;51.690;5.982;2023-11-19T18:37:14;22.10;;;5.27;;
6519;SDS011;3293;51.690;5.982;2023-11-19T18:42:14;19.23;;;4.53;;
6519;SDS011;3293;51.690;5.982;2023-11-19T18:47:14;27.50;;;5.70;;
6519;SDS011;3293;51.690;5.982;2023-11-19T18:52:14;17.83;;;5.07;;
6519;SDS011;3293;51.690;5.982;2023-11-19T18:57:14;16.57;;;4.90;;
6519;SDS011;3293;51.690;5.982;2023-11-19T19:02:14;15.97;;;4.63;;
6519;SDS011;3293;51.690;5.982;2023-11-19T19:07:14;9.93;;;4.30;;
6519;SDS011;3293;51.690;5.982;2023-11-19T19:12:14;14.50;;;4.20;;
6519;SDS011;3293;51.690;5.982;2023-11-19T19:17:14;10.30;;;3.63;;
6519;SDS011;3293;51.690;5.982;2023-11-19T19:22:14;15.67;;;4.33;;
6519;SDS011;3293;51.690;5.982;2023-11-19T19:27:14;14.87;;;4.57;;
6519;SDS011;3293;51.690;5.982;2023-11-19T19:32:14;16.63;;;5.10;;
6519;SDS011;3293;51.690;5.982;2023-11-19T19:37:14;12.53;;;4.57;;
6519;SDS011;3293;51.690;5.982;2023-11-19T19:42:14;6.90;;;3.93;;
6519;SDS011;3293;51.690;5.982;2023-11-19T19:47:15;11.80;;;4.70;;
6519;SDS011;3293;51.690;5.982;2023-11-19T19:52:18;13.33;;;4.53;;
6519;SDS011;3293;51.690;5.982;2023-11-19T19:57:20;16.37;;;5.03;;
6519;SDS011;3293;51.690;5.982;2023-11-19T20:02:21;11.50;;;5.17;;
6519;SDS011;3293;51.690;5.982;2023-11-19T20:07:21;16.67;;;5.53;;
6519;SDS011;3293;51.690;5.982;2023-11-19T20:12:21;11.17;;;5.87;;
6519;SDS011;3293;51.690;5.982;2023-11-19T20:17:21;14.07;;;6.30;;
6519;SDS011;3293;51.690;5.982;2023-11-19T20:22:21;12.83;;;6.23;;
6519;SDS011;3293;51.690;5.982;2023-11-19T20:27:21;16.90;;;5.43;;
6519;SDS011;3293;51.690;5.982;2023-11-19T20:32:21;16.77;;;6.63;;
6519;SDS011;3293;51.690;5.982;2023-11-19T20:37:21;15.00;;;5.83;;
6519;SDS011;3293;51.690;5.982;2023-11-19T20:42:21;21.60;;;7.00;;
6519;SDS011;3293;51.690;5.982;2023-11-19T20:47:21;24.53;;;6.50;;
6519;SDS011;3293;51.690;5.982;2023-11-19T20:52:21;15.30;;;5.77;;
6519;SDS011;3293;51.690;5.982;2023-11-19T20:57:21;17.37;;;6.53;;
6519;SDS011;3293;51.690;5.982;2023-11-19T21:02:21;18.43;;;5.87;;
6519;SDS011;3293;51.690;5.982;2023-11-19T21:07:22;16.13;;;6.17;;
6519;SDS011;3293;51.690;5.982;2023-11-19T21:12:22;12.57;;;5.43;;
6519;SDS011;3293;51.690;5.982;2023-11-19T21:17:22;16.27;;;6.33;;
6519;SDS011;3293;51.690;5.982;2023-11-19T21:22:22;19.63;;;6.60;;
6519;SDS011;3293;51.690;5.982;2023-11-19T21:27:22;18.47;;;6.23;;
6519;SDS011;3293;51.690;5.982;2023-11-19T21:32:22;25.40;;;7.13;;
6519;SDS011;3293;51.690;5.982;2023-11-19T21:37:22;14.87;;;6.57;;
6519;SDS011;3293;51.690;5.982;2023-11-19T21:42:22;20.73;;;6.47;;
6519;SDS011;3293;51.690;5.982;2023-11-19T21:47:22;19.87;;;7.57;;
6519;SDS011;3293;51.690;5.982;2023-11-19T21:52:22;15.03;;;6.50;;
6519;SDS011;3293;51.690;5.982;2023-11-19T21:57:22;18.17;;;6.10;;
6519;SDS011;3293;51.690;5.982;2023-11-19T22:02:22;17.50;;;6.40;;
6519;SDS011;3293;51.690;5.982;2023-11-19T22:07:22;18.33;;;6.47;;
6519;SDS011;3293;51.690;5.982;2023-11-19T22:12:22;16.10;;;7.27;;
6519;SDS011;3293;51.690;5.982;2023-11-19T22:17:22;17.70;;;5.73;;
6519;SDS011;3293;51.690;5.982;2023-11-19T22:22:22;21.00;;;7.10;;
6519;SDS011;3293;51.690;5.982;2023-11-19T22:27:22;17.37;;;5.90;;
6519;SDS011;3293;51.690;5.982;2023-11-19T22:32:22;13.57;;;6.23;;
6519;SDS011;3293;51.690;5.982;2023-11-19T22:37:22;14.37;;;6.20;;
6519;SDS011;3293;51.690;5.982;2023-11-19T22:42:22;15.37;;;6.27;;
6519;SDS011;3293;51.690;5.982;2023-11-19T22:47:22;12.97;;;5.77;;
6519;SDS011;3293;51.690;5.982;2023-11-19T22:52:22;18.87;;;6.27;;
6519;SDS011;3293;51.690;5.982;2023-11-19T22:57:22;18.23;;;6.87;;
6519;SDS011;3293;51.690;5.982;2023-11-19T23:02:22;13.90;;;6.27;;
6519;SDS011;3293;51.690;5.982;2023-11-19T23:07:22;18.80;;;7.40;;
6519;SDS011;3293;51.690;5.982;2023-11-19T23:12:22;15.53;;;6.80;;
6519;SDS011;3293;51.690;5.982;2023-11-19T23:17:22;14.37;;;7.10;;
6519;SDS011;3293;51.690;5.982;2023-11-19T23:22:25;19.90;;;8.37;;
6519;SDS011;3293;51.690;5.982;2023-11-19T23:27:27;18.70;;;7.77;;
6519;SDS011;3293;51.690;5.982;2023-11-19T23:32:27;17.83;;;7.27;;
6519;SDS011;3293;51.690;5.982;2023-11-19T23:37:26;16.37;;;7.00;;
6519;SDS011;3293;51.690;5.982;2023-11-19T23:42:27;18.53;;;6.23;;
6519;SDS011;3293;51.690;5.982;2023-11-19T23:47:26;14.77;;;6.67;;
6519;SDS011;3293;51.690;5.982;2023-11-19T23:52:27;16.13;;;7.83;;
6519;SDS011;3293;51.690;5.982;2023-11-19T23:57:27;19.23;;;6.77;;
